NCAR-RAP Real-Time Weather Data

Output produced by METARs form (24 January 2022  22:25 UTC)
found at http://weather.rap.ucar.edu/surface/
 
KICT 242153Z 01017G24KT 10SM CLR 14/M03 A2985 RMK AO2 PK WND 34028/2122 SLP111 T01391028
KICT 241953Z 01017G25KT 10SM CLR 15/M02 A2982 RMK AO2 PK WND 35026/1914 SLP098 T01501022
KICT 241853Z 02015G22KT 10SM FEW180 15/M02 A2983 RMK AO2 SLP101 T01501022
KICT 241753Z 01016G22KT 10SM FEW180 14/M03 A2984 RMK AO2 SLP105 T01391028 10139 21022 50012
KICT 241653Z 34015KT 10SM FEW180 11/M03 A2984 RMK AO2 SLP106 T01111028
KICT 241553Z 34012KT 10SM FEW180 08/M03 A2983 RMK AO2 SLP104 T00831033
KICT 241453Z 31009KT 10SM FEW180 06/M03 A2980 RMK AO2 SLP097 T00561028 53003
KICT 241353Z 25006KT 10SM FEW180 00/M04 A2979 RMK AO2 SLP094 T00001044